sensor_id;sensor_type;location;lat;lon;timestamp;P1;durP1;ratioP1;P2;durP2;ratioP2
67248;SDS011;63247;54.300;18.592;2022-11-20T00:02:14;50.37;;;16.33;;
67248;SDS011;63247;54.300;18.592;2022-11-20T00:04:40;53.67;;;15.07;;
67248;SDS011;63247;54.300;18.592;2022-11-20T00:07:05;49.60;;;14.40;;
67248;SDS011;63247;54.300;18.592;2022-11-20T00:09:31;38.42;;;13.32;;
67248;SDS011;63247;54.300;18.592;2022-11-20T00:11:56;49.07;;;14.27;;
67248;SDS011;63247;54.300;18.592;2022-11-20T00:14:22;60.17;;;16.73;;
67248;SDS011;63247;54.300;18.592;2022-11-20T00:16:47;54.37;;;17.33;;
67248;SDS011;63247;54.300;18.592;2022-11-20T00:19:12;48.27;;;15.50;;
67248;SDS011;63247;54.300;18.592;2022-11-20T00:21:38;40.45;;;11.98;;
67248;SDS011;63247;54.300;18.592;2022-11-20T00:24:03;51.87;;;17.93;;
67248;SDS011;63247;54.300;18.592;2022-11-20T00:26:29;61.13;;;19.30;;
67248;SDS011;63247;54.300;18.592;2022-11-20T00:28:56;54.70;;;17.35;;
67248;SDS011;63247;54.300;18.592;2022-11-20T00:31:23;43.63;;;12.60;;
67248;SDS011;63247;54.300;18.592;2022-11-20T00:33:49;37.23;;;11.80;;
67248;SDS011;63247;54.300;18.592;2022-11-20T00:36:18;51.28;;;15.75;;
67248;SDS011;63247;54.300;18.592;2022-11-20T00:38:46;63.15;;;19.60;;
67248;SDS011;63247;54.300;18.592;2022-11-20T00:41:15;54.70;;;18.53;;
67248;SDS011;63247;54.300;18.592;2022-11-20T00:43:40;59.05;;;16.77;;
67248;SDS011;63247;54.300;18.592;2022-11-20T00:46:10;61.08;;;18.75;;
67248;SDS011;63247;54.300;18.592;2022-11-20T00:48:38;51.78;;;15.45;;
67248;SDS011;63247;54.300;18.592;2022-11-20T00:51:03;51.87;;;15.57;;
67248;SDS011;63247;54.300;18.592;2022-11-20T00:53:29;44.85;;;13.85;;
67248;SDS011;63247;54.300;18.592;2022-11-20T00:55:56;46.92;;;14.93;;
67248;SDS011;63247;54.300;18.592;2022-11-20T00:58:23;54.08;;;16.70;;
67248;SDS011;63247;54.300;18.592;2022-11-20T01:00:49;57.00;;;17.55;;
67248;SDS011;63247;54.300;18.592;2022-11-20T01:03:16;55.78;;;18.48;;
67248;SDS011;63247;54.300;18.592;2022-11-20T01:05:42;52.40;;;14.40;;
67248;SDS011;63247;54.300;18.592;2022-11-20T01:08:08;52.60;;;16.30;;
67248;SDS011;63247;54.300;18.592;2022-11-20T01:10:33;56.50;;;17.07;;
67248;SDS011;63247;54.300;18.592;2022-11-20T01:12:59;45.38;;;14.55;;
67248;SDS011;63247;54.300;18.592;2022-11-20T01:15:43;58.60;;;18.63;;
67248;SDS011;63247;54.300;18.592;2022-11-20T01:18:08;50.90;;;16.25;;
67248;SDS011;63247;54.300;18.592;2022-11-20T01:20:35;51.40;;;15.85;;
67248;SDS011;63247;54.300;18.592;2022-11-20T01:23:01;27.63;;;9.73;;
67248;SDS011;63247;54.300;18.592;2022-11-20T01:25:28;49.22;;;15.75;;
67248;SDS011;63247;54.300;18.592;2022-11-20T01:27:53;54.90;;;17.10;;
67248;SDS011;63247;54.300;18.592;2022-11-20T01:30:19;43.47;;;13.10;;
67248;SDS011;63247;54.300;18.592;2022-11-20T01:32:44;49.03;;;15.27;;
67248;SDS011;63247;54.300;18.592;2022-11-20T01:35:10;56.38;;;17.58;;
67248;SDS011;63247;54.300;18.592;2022-11-20T01:37:35;49.90;;;15.63;;
67248;SDS011;63247;54.300;18.592;2022-11-20T01:40:01;55.10;;;17.67;;
67248;SDS011;63247;54.300;18.592;2022-11-20T01:42:26;45.23;;;13.33;;
67248;SDS011;63247;54.300;18.592;2022-11-20T01:48:08;49.72;;;16.15;;
67248;SDS011;63247;54.300;18.592;2022-11-20T01:50:34;44.63;;;13.90;;
67248;SDS011;63247;54.300;18.592;2022-11-20T01:53:06;34.20;;;10.30;;
67248;SDS011;63247;54.300;18.592;2022-11-20T01:55:39;44.20;;;14.40;;
67248;SDS011;63247;54.300;18.592;2022-11-20T01:58:14;41.45;;;12.63;;
67248;SDS011;63247;54.300;18.592;2022-11-20T02:00:41;44.57;;;13.07;;
67248;SDS011;63247;54.300;18.592;2022-11-20T02:03:08;43.97;;;12.88;;
67248;SDS011;63247;54.300;18.592;2022-11-20T02:05:38;41.20;;;12.80;;
67248;SDS011;63247;54.300;18.592;2022-11-20T02:08:04;47.53;;;14.37;;
67248;SDS011;63247;54.300;18.592;2022-11-20T02:10:30;51.97;;;15.75;;
67248;SDS011;63247;54.300;18.592;2022-11-20T02:12:57;47.78;;;14.93;;
67248;SDS011;63247;54.300;18.592;2022-11-20T02:15:41;32.95;;;10.23;;
67248;SDS011;63247;54.300;18.592;2022-11-20T02:18:07;48.63;;;14.20;;
67248;SDS011;63247;54.300;18.592;2022-11-20T02:20:34;55.22;;;15.25;;
67248;SDS011;63247;54.300;18.592;2022-11-20T02:23:13;46.97;;;13.90;;
67248;SDS011;63247;54.300;18.592;2022-11-20T02:25:46;53.50;;;15.90;;
67248;SDS011;63247;54.300;18.592;2022-11-20T02:28:13;52.33;;;14.80;;
67248;SDS011;63247;54.300;18.592;2022-11-20T02:30:38;43.97;;;13.88;;
67248;SDS011;63247;54.300;18.592;2022-11-20T02:33:04;44.93;;;14.83;;
67248;SDS011;63247;54.300;18.592;2022-11-20T02:37:55;22.23;;;7.47;;
67248;SDS011;63247;54.300;18.592;2022-11-20T02:40:22;47.13;;;14.25;;
67248;SDS011;63247;54.300;18.592;2022-11-20T02:42:51;39.67;;;13.13;;
67248;SDS011;63247;54.300;18.592;2022-11-20T02:45:20;42.85;;;13.57;;
67248;SDS011;63247;54.300;18.592;2022-11-20T02:47:46;44.63;;;14.67;;
67248;SDS011;63247;54.300;18.592;2022-11-20T02:50:12;29.90;;;9.80;;
67248;SDS011;63247;54.300;18.592;2022-11-20T02:52:37;33.30;;;10.43;;
67248;SDS011;63247;54.300;18.592;2022-11-20T02:55:03;47.30;;;14.73;;
67248;SDS011;63247;54.300;18.592;2022-11-20T02:57:29;34.83;;;10.10;;
67248;SDS011;63247;54.300;18.592;2022-11-20T02:59:54;42.80;;;12.90;;
67248;SDS011;63247;54.300;18.592;2022-11-20T03:02:20;44.25;;;14.50;;
67248;SDS011;63247;54.300;18.592;2022-11-20T03:04:45;31.23;;;10.33;;
67248;SDS011;63247;54.300;18.592;2022-11-20T03:07:11;47.47;;;14.63;;
67248;SDS011;63247;54.300;18.592;2022-11-20T03:09:36;43.10;;;13.07;;
67248;SDS011;63247;54.300;18.592;2022-11-20T03:12:02;47.10;;;13.87;;
67248;SDS011;63247;54.300;18.592;2022-11-20T03:14:27;43.73;;;13.67;;
67248;SDS011;63247;54.300;18.592;2022-11-20T03:16:53;39.72;;;12.15;;
67248;SDS011;63247;54.300;18.592;2022-11-20T03:19:18;46.03;;;12.97;;
67248;SDS011;63247;54.300;18.592;2022-11-20T03:21:44;46.73;;;14.77;;
67248;SDS011;63247;54.300;18.592;2022-11-20T03:24:09;45.40;;;14.30;;
67248;SDS011;63247;54.300;18.592;2022-11-20T03:26:35;52.72;;;15.63;;
67248;SDS011;63247;54.300;18.592;2022-11-20T03:29:02;49.47;;;15.67;;
67248;SDS011;63247;54.300;18.592;2022-11-20T03:31:33;54.90;;;16.88;;
67248;SDS011;63247;54.300;18.592;2022-11-20T03:34:00;54.95;;;16.17;;
67248;SDS011;63247;54.300;18.592;2022-11-20T03:36:26;48.83;;;16.02;;
67248;SDS011;63247;54.300;18.592;2022-11-20T03:38:53;49.30;;;15.50;;
67248;SDS011;63247;54.300;18.592;2022-11-20T03:41:20;53.33;;;15.68;;
67248;SDS011;63247;54.300;18.592;2022-11-20T03:43:54;45.53;;;14.35;;
67248;SDS011;63247;54.300;18.592;2022-11-20T03:46:22;47.05;;;15.05;;
67248;SDS011;63247;54.300;18.592;2022-11-20T03:48:47;49.60;;;16.08;;
67248;SDS011;63247;54.300;18.592;2022-11-20T03:51:14;50.55;;;15.77;;
67248;SDS011;63247;54.300;18.592;2022-11-20T03:53:42;49.17;;;14.82;;
67248;SDS011;63247;54.300;18.592;2022-11-20T03:56:10;47.67;;;14.50;;
67248;SDS011;63247;54.300;18.592;2022-11-20T03:58:36;51.03;;;16.27;;
67248;SDS011;63247;54.300;18.592;2022-11-20T04:01:10;51.70;;;16.25;;
67248;SDS011;63247;54.300;18.592;2022-11-20T04:03:38;52.88;;;17.02;;
67248;SDS011;63247;54.300;18.592;2022-11-20T04:06:06;49.97;;;15.13;;
67248;SDS011;63247;54.300;18.592;2022-11-20T04:08:34;46.80;;;15.47;;
67248;SDS011;63247;54.300;18.592;2022-11-20T04:11:19;50.65;;;14.98;;
67248;SDS011;63247;54.300;18.592;2022-11-20T04:13:49;54.35;;;15.95;;
67248;SDS011;63247;54.300;18.592;2022-11-20T04:16:19;55.47;;;15.93;;
67248;SDS011;63247;54.300;18.592;2022-11-20T04:18:46;66.97;;;17.80;;
67248;SDS011;63247;54.300;18.592;2022-11-20T04:21:11;62.80;;;17.95;;
67248;SDS011;63247;54.300;18.592;2022-11-20T04:23:37;57.23;;;16.97;;
67248;SDS011;63247;54.300;18.592;2022-11-20T04:26:07;45.57;;;14.10;;
67248;SDS011;63247;54.300;18.592;2022-11-20T04:28:33;54.38;;;15.98;;
67248;SDS011;63247;54.300;18.592;2022-11-20T04:31:03;50.40;;;16.48;;
67248;SDS011;63247;54.300;18.592;2022-11-20T04:33:30;54.35;;;15.60;;
67248;SDS011;63247;54.300;18.592;2022-11-20T04:35:59;51.17;;;16.40;;
67248;SDS011;63247;54.300;18.592;2022-11-20T04:38:26;53.95;;;16.25;;
67248;SDS011;63247;54.300;18.592;2022-11-20T04:40:55;49.35;;;14.38;;
67248;SDS011;63247;54.300;18.592;2022-11-20T04:43:22;54.87;;;16.53;;
67248;SDS011;63247;54.300;18.592;2022-11-20T04:45:51;56.28;;;16.10;;
67248;SDS011;63247;54.300;18.592;2022-11-20T04:48:17;60.83;;;17.17;;
67248;SDS011;63247;54.300;18.592;2022-11-20T04:50:42;59.10;;;17.07;;
67248;SDS011;63247;54.300;18.592;2022-11-20T04:53:08;60.47;;;17.77;;
67248;SDS011;63247;54.300;18.592;2022-11-20T04:55:33;64.68;;;18.35;;
67248;SDS011;63247;54.300;18.592;2022-11-20T04:57:58;60.67;;;17.43;;
67248;SDS011;63247;54.300;18.592;2022-11-20T05:00:24;62.13;;;17.83;;
67248;SDS011;63247;54.300;18.592;2022-11-20T05:02:49;63.33;;;17.50;;
67248;SDS011;63247;54.300;18.592;2022-11-20T05:05:15;60.47;;;17.50;;
67248;SDS011;63247;54.300;18.592;2022-11-20T05:07:40;62.92;;;17.83;;
67248;SDS011;63247;54.300;18.592;2022-11-20T05:10:06;64.30;;;18.30;;
67248;SDS011;63247;54.300;18.592;2022-11-20T05:12:32;51.00;;;13.90;;
67248;SDS011;63247;54.300;18.592;2022-11-20T05:14:57;60.63;;;15.88;;
67248;SDS011;63247;54.300;18.592;2022-11-20T05:17:22;63.23;;;17.27;;
67248;SDS011;63247;54.300;18.592;2022-11-20T05:19:48;63.63;;;16.83;;
67248;SDS011;63247;54.300;18.592;2022-11-20T05:22:13;49.47;;;14.83;;
67248;SDS011;63247;54.300;18.592;2022-11-20T05:24:39;59.33;;;16.90;;
67248;SDS011;63247;54.300;18.592;2022-11-20T05:27:04;56.00;;;15.97;;
67248;SDS011;63247;54.300;18.592;2022-11-20T05:29:30;55.70;;;15.57;;
67248;SDS011;63247;54.300;18.592;2022-11-20T05:31:55;53.90;;;15.27;;
67248;SDS011;63247;54.300;18.592;2022-11-20T05:34:21;54.60;;;14.93;;
67248;SDS011;63247;54.300;18.592;2022-11-20T05:36:46;60.42;;;15.77;;
67248;SDS011;63247;54.300;18.592;2022-11-20T05:39:11;60.20;;;15.83;;
67248;SDS011;63247;54.300;18.592;2022-11-20T05:41:37;51.93;;;14.87;;
67248;SDS011;63247;54.300;18.592;2022-11-20T05:44:02;61.03;;;15.97;;
67248;SDS011;63247;54.300;18.592;2022-11-20T05:46:28;60.05;;;16.48;;
67248;SDS011;63247;54.300;18.592;2022-11-20T05:48:53;63.67;;;16.43;;
67248;SDS011;63247;54.300;18.592;2022-11-20T05:51:19;58.25;;;15.85;;
67248;SDS011;63247;54.300;18.592;2022-11-20T05:53:45;61.67;;;14.82;;
67248;SDS011;63247;54.300;18.592;2022-11-20T05:56:15;60.38;;;15.25;;
67248;SDS011;63247;54.300;18.592;2022-11-20T05:58:42;63.78;;;18.02;;
67248;SDS011;63247;54.300;18.592;2022-11-20T06:01:10;58.72;;;15.88;;
67248;SDS011;63247;54.300;18.592;2022-11-20T06:03:38;65.68;;;16.92;;
67248;SDS011;63247;54.300;18.592;2022-11-20T06:06:05;66.75;;;17.00;;
67248;SDS011;63247;54.300;18.592;2022-11-20T06:08:31;61.67;;;15.87;;
67248;SDS011;63247;54.300;18.592;2022-11-20T06:10:57;65.97;;;16.08;;
67248;SDS011;63247;54.300;18.592;2022-11-20T06:13:22;69.03;;;18.17;;
67248;SDS011;63247;54.300;18.592;2022-11-20T06:15:49;69.15;;;16.52;;
67248;SDS011;63247;54.300;18.592;2022-11-20T06:18:15;66.70;;;16.98;;
67248;SDS011;63247;54.300;18.592;2022-11-20T06:20:41;66.13;;;18.20;;
67248;SDS011;63247;54.300;18.592;2022-11-20T06:23:06;62.40;;;17.20;;
67248;SDS011;63247;54.300;18.592;2022-11-20T06:25:32;60.30;;;15.90;;
67248;SDS011;63247;54.300;18.592;2022-11-20T06:27:57;71.97;;;18.48;;
67248;SDS011;63247;54.300;18.592;2022-11-20T06:30:22;67.77;;;17.07;;
67248;SDS011;63247;54.300;18.592;2022-11-20T06:32:48;66.77;;;17.50;;
67248;SDS011;63247;54.300;18.592;2022-11-20T06:35:13;70.27;;;18.23;;
67248;SDS011;63247;54.300;18.592;2022-11-20T06:37:39;64.22;;;16.65;;
67248;SDS011;63247;54.300;18.592;2022-11-20T06:40:05;69.27;;;18.70;;
67248;SDS011;63247;54.300;18.592;2022-11-20T06:42:31;68.65;;;16.33;;
67248;SDS011;63247;54.300;18.592;2022-11-20T06:44:57;66.70;;;16.92;;
67248;SDS011;63247;54.300;18.592;2022-11-20T06:47:22;65.23;;;16.80;;
67248;SDS011;63247;54.300;18.592;2022-11-20T06:49:48;66.03;;;17.03;;
67248;SDS011;63247;54.300;18.592;2022-11-20T06:52:13;73.53;;;17.83;;
67248;SDS011;63247;54.300;18.592;2022-11-20T06:54:39;64.70;;;17.37;;
67248;SDS011;63247;54.300;18.592;2022-11-20T06:57:04;64.40;;;16.80;;
67248;SDS011;63247;54.300;18.592;2022-11-20T06:59:30;72.57;;;17.90;;
67248;SDS011;63247;54.300;18.592;2022-11-20T07:01:55;74.23;;;18.13;;
67248;SDS011;63247;54.300;18.592;2022-11-20T07:04:20;74.83;;;18.47;;
67248;SDS011;63247;54.300;18.592;2022-11-20T07:06:46;78.63;;;19.00;;
67248;SDS011;63247;54.300;18.592;2022-11-20T07:09:11;67.88;;;17.73;;
67248;SDS011;63247;54.300;18.592;2022-11-20T07:11:37;66.77;;;17.93;;
67248;SDS011;63247;54.300;18.592;2022-11-20T07:14:02;68.57;;;18.27;;
67248;SDS011;63247;54.300;18.592;2022-11-20T07:16:28;70.83;;;18.80;;
67248;SDS011;63247;54.300;18.592;2022-11-20T07:18:53;71.88;;;18.38;;
67248;SDS011;63247;54.300;18.592;2022-11-20T07:21:19;77.32;;;18.73;;
67248;SDS011;63247;54.300;18.592;2022-11-20T07:23:44;74.73;;;19.13;;
67248;SDS011;63247;54.300;18.592;2022-11-20T07:26:10;71.83;;;18.50;;
67248;SDS011;63247;54.300;18.592;2022-11-20T07:28:36;71.45;;;18.08;;
67248;SDS011;63247;54.300;18.592;2022-11-20T07:31:02;69.10;;;19.70;;
67248;SDS011;63247;54.300;18.592;2022-11-20T07:33:28;74.40;;;20.13;;
67248;SDS011;63247;54.300;18.592;2022-11-20T07:35:53;72.60;;;19.37;;
67248;SDS011;63247;54.300;18.592;2022-11-20T07:38:19;71.93;;;19.35;;
67248;SDS011;63247;54.300;18.592;2022-11-20T07:40:44;75.77;;;18.10;;
67248;SDS011;63247;54.300;18.592;2022-11-20T07:43:10;79.47;;;19.00;;
67248;SDS011;63247;54.300;18.592;2022-11-20T07:45:35;71.23;;;19.90;;
67248;SDS011;63247;54.300;18.592;2022-11-20T07:48:01;78.03;;;21.58;;
67248;SDS011;63247;54.300;18.592;2022-11-20T07:50:26;85.10;;;21.93;;
67248;SDS011;63247;54.300;18.592;2022-11-20T07:52:52;77.23;;;18.97;;
67248;SDS011;63247;54.300;18.592;2022-11-20T07:55:17;73.40;;;20.45;;
67248;SDS011;63247;54.300;18.592;2022-11-20T07:57:43;76.45;;;20.00;;
67248;SDS011;63247;54.300;18.592;2022-11-20T08:00:09;81.37;;;19.80;;
67248;SDS011;63247;54.300;18.592;2022-11-20T08:02:39;73.18;;;20.55;;
67248;SDS011;63247;54.300;18.592;2022-11-20T08:05:06;72.67;;;19.10;;
67248;SDS011;63247;54.300;18.592;2022-11-20T08:07:36;84.50;;;21.60;;
67248;SDS011;63247;54.300;18.592;2022-11-20T08:10:06;76.07;;;20.42;;
67248;SDS011;63247;54.300;18.592;2022-11-20T08:12:33;75.20;;;20.55;;
67248;SDS011;63247;54.300;18.592;2022-11-20T08:15:17;72.97;;;19.48;;
67248;SDS011;63247;54.300;18.592;2022-11-20T08:17:43;86.77;;;25.37;;
67248;SDS011;63247;54.300;18.592;2022-11-20T08:20:08;69.10;;;18.40;;
67248;SDS011;63247;54.300;18.592;2022-11-20T08:22:34;73.57;;;21.65;;
67248;SDS011;63247;54.300;18.592;2022-11-20T08:25:00;66.70;;;18.93;;
67248;SDS011;63247;54.300;18.592;2022-11-20T08:27:25;67.97;;;18.70;;
67248;SDS011;63247;54.300;18.592;2022-11-20T08:29:51;71.53;;;17.95;;
67248;SDS011;63247;54.300;18.592;2022-11-20T08:32:16;67.13;;;17.20;;
67248;SDS011;63247;54.300;18.592;2022-11-20T08:34:42;68.90;;;19.93;;
67248;SDS011;63247;54.300;18.592;2022-11-20T08:37:09;77.87;;;19.83;;
67248;SDS011;63247;54.300;18.592;2022-11-20T08:39:35;89.18;;;24.95;;
67248;SDS011;63247;54.300;18.592;2022-11-20T08:42:00;72.83;;;20.83;;
67248;SDS011;63247;54.300;18.592;2022-11-20T08:44:26;69.60;;;18.13;;
67248;SDS011;63247;54.300;18.592;2022-11-20T08:46:51;76.27;;;19.17;;
67248;SDS011;63247;54.300;18.592;2022-11-20T08:49:17;74.00;;;20.93;;
67248;SDS011;63247;54.300;18.592;2022-11-20T08:51:43;76.63;;;18.70;;
67248;SDS011;63247;54.300;18.592;2022-11-20T08:54:08;74.10;;;21.00;;
67248;SDS011;63247;54.300;18.592;2022-11-20T08:56:34;77.43;;;20.67;;
67248;SDS011;63247;54.300;18.592;2022-11-20T08:59:00;63.88;;;19.08;;
67248;SDS011;63247;54.300;18.592;2022-11-20T09:01:26;68.45;;;19.90;;
67248;SDS011;63247;54.300;18.592;2022-11-20T09:03:52;73.33;;;19.23;;
67248;SDS011;63247;54.300;18.592;2022-11-20T09:06:17;68.07;;;19.48;;
67248;SDS011;63247;54.300;18.592;2022-11-20T09:08:43;75.13;;;20.27;;
67248;SDS011;63247;54.300;18.592;2022-11-20T09:11:09;76.15;;;22.23;;
67248;SDS011;63247;54.300;18.592;2022-11-20T09:13:35;76.88;;;22.92;;
67248;SDS011;63247;54.300;18.592;2022-11-20T09:16:02;71.87;;;21.63;;
67248;SDS011;63247;54.300;18.592;2022-11-20T09:18:30;77.03;;;21.00;;
67248;SDS011;63247;54.300;18.592;2022-11-20T09:20:59;87.63;;;25.95;;
67248;SDS011;63247;54.300;18.592;2022-11-20T09:23:26;101.00;;;29.92;;
67248;SDS011;63247;54.300;18.592;2022-11-20T09:25:52;86.95;;;24.58;;
67248;SDS011;63247;54.300;18.592;2022-11-20T09:28:20;94.37;;;28.23;;
67248;SDS011;63247;54.300;18.592;2022-11-20T09:30:45;90.60;;;25.08;;
67248;SDS011;63247;54.300;18.592;2022-11-20T09:33:11;70.87;;;18.17;;
67248;SDS011;63247;54.300;18.592;2022-11-20T09:35:36;80.97;;;22.60;;
67248;SDS011;63247;54.300;18.592;2022-11-20T09:38:08;81.55;;;20.65;;
67248;SDS011;63247;54.300;18.592;2022-11-20T09:40:35;92.30;;;26.20;;
67248;SDS011;63247;54.300;18.592;2022-11-20T09:46:17;91.60;;;25.38;;
67248;SDS011;63247;54.300;18.592;2022-11-20T09:49:03;82.53;;;23.70;;
67248;SDS011;63247;54.300;18.592;2022-11-20T09:54:29;76.40;;;21.90;;
67248;SDS011;63247;54.300;18.592;2022-11-20T09:57:00;75.45;;;21.08;;
67248;SDS011;63247;54.300;18.592;2022-11-20T09:59:41;74.78;;;19.63;;
67248;SDS011;63247;54.300;18.592;2022-11-20T10:05:11;81.30;;;22.23;;
67248;SDS011;63247;54.300;18.592;2022-11-20T10:10:42;91.28;;;24.10;;
67248;SDS011;63247;54.300;18.592;2022-11-20T10:13:23;76.35;;;19.95;;
67248;SDS011;63247;54.300;18.592;2022-11-20T10:31:17;83.20;;;22.33;;
67248;SDS011;63247;54.300;18.592;2022-11-20T10:34:18;87.95;;;24.83;;
67248;SDS011;63247;54.300;18.592;2022-11-20T10:37:01;93.90;;;29.02;;
67248;SDS011;63247;54.300;18.592;2022-11-20T10:39:35;54.60;;;17.70;;
67248;SDS011;63247;54.300;18.592;2022-11-20T10:42:08;77.80;;;21.88;;
67248;SDS011;63247;54.300;18.592;2022-11-20T10:44:39;98.70;;;29.25;;
67248;SDS011;63247;54.300;18.592;2022-11-20T10:47:27;85.43;;;23.95;;
67248;SDS011;63247;54.300;18.592;2022-11-20T10:49:56;62.00;;;18.20;;
67248;SDS011;63247;54.300;18.592;2022-11-20T10:58:34;69.40;;;21.23;;
67248;SDS011;63247;54.300;18.592;2022-11-20T11:00:42;82.22;;;21.65;;
67248;SDS011;63247;54.300;18.592;2022-11-20T11:03:40;85.77;;;24.47;;
67248;SDS011;63247;54.300;18.592;2022-11-20T11:08:43;88.82;;;24.10;;
67248;SDS011;63247;54.300;18.592;2022-11-20T11:11:20;75.38;;;21.20;;
67248;SDS011;63247;54.300;18.592;2022-11-20T11:13:46;97.03;;;28.40;;
67248;SDS011;63247;54.300;18.592;2022-11-20T11:16:22;87.22;;;27.65;;
67248;SDS011;63247;54.300;18.592;2022-11-20T11:18:50;77.73;;;22.60;;
67248;SDS011;63247;54.300;18.592;2022-11-20T11:21:25;63.58;;;18.48;;
67248;SDS011;63247;54.300;18.592;2022-11-20T11:23:59;86.72;;;23.65;;
67248;SDS011;63247;54.300;18.592;2022-11-20T11:26:26;68.53;;;21.05;;
67248;SDS011;63247;54.300;18.592;2022-11-20T11:28:56;91.22;;;26.80;;
67248;SDS011;63247;54.300;18.592;2022-11-20T11:31:32;67.73;;;20.53;;
67248;SDS011;63247;54.300;18.592;2022-11-20T11:34:11;83.40;;;23.85;;
67248;SDS011;63247;54.300;18.592;2022-11-20T11:36:39;86.03;;;25.75;;
67248;SDS011;63247;54.300;18.592;2022-11-20T11:39:05;80.40;;;23.27;;
67248;SDS011;63247;54.300;18.592;2022-11-20T11:41:36;66.82;;;19.52;;
67248;SDS011;63247;54.300;18.592;2022-11-20T11:47:01;59.10;;;18.38;;
67248;SDS011;63247;54.300;18.592;2022-11-20T11:49:28;59.05;;;18.20;;
67248;SDS011;63247;54.300;18.592;2022-11-20T11:52:04;85.63;;;25.70;;
67248;SDS011;63247;54.300;18.592;2022-11-20T11:54:50;67.60;;;19.83;;
67248;SDS011;63247;54.300;18.592;2022-11-20T12:05:29;82.25;;;24.08;;
67248;SDS011;63247;54.300;18.592;2022-11-20T12:08:03;74.88;;;21.63;;
67248;SDS011;63247;54.300;18.592;2022-11-20T12:16:40;67.50;;;20.77;;
67248;SDS011;63247;54.300;18.592;2022-11-20T12:19:12;44.33;;;13.48;;
67248;SDS011;63247;54.300;18.592;2022-11-20T12:21:43;84.05;;;22.35;;
67248;SDS011;63247;54.300;18.592;2022-11-20T12:24:42;64.10;;;18.40;;
67248;SDS011;63247;54.300;18.592;2022-11-20T12:50:02;84.07;;;25.23;;
67248;SDS011;63247;54.300;18.592;2022-11-20T12:52:58;84.27;;;22.63;;
67248;SDS011;63247;54.300;18.592;2022-11-20T13:01:12;78.20;;;21.48;;
67248;SDS011;63247;54.300;18.592;2022-11-20T13:04:18;58.67;;;18.30;;
67248;SDS011;63247;54.300;18.592;2022-11-20T13:06:58;88.68;;;25.52;;
67248;SDS011;63247;54.300;18.592;2022-11-20T13:09:27;56.85;;;20.42;;
67248;SDS011;63247;54.300;18.592;2022-11-20T13:11:58;69.83;;;22.13;;
67248;SDS011;63247;54.300;18.592;2022-11-20T13:14:37;76.55;;;21.13;;
67248;SDS011;63247;54.300;18.592;2022-11-20T13:20:35;52.22;;;15.50;;
67248;SDS011;63247;54.300;18.592;2022-11-20T13:23:05;72.27;;;19.60;;
67248;SDS011;63247;54.300;18.592;2022-11-20T13:25:32;56.25;;;17.08;;
67248;SDS011;63247;54.300;18.592;2022-11-20T13:28:26;79.67;;;24.23;;
67248;SDS011;63247;54.300;18.592;2022-11-20T13:30:55;72.78;;;18.98;;
67248;SDS011;63247;54.300;18.592;2022-11-20T13:33:22;70.68;;;24.48;;
67248;SDS011;63247;54.300;18.592;2022-11-20T13:38:28;70.53;;;21.20;;
67248;SDS011;63247;54.300;18.592;2022-11-20T13:41:07;69.63;;;19.53;;
67248;SDS011;63247;54.300;18.592;2022-11-20T13:43:51;60.40;;;19.83;;
67248;SDS011;63247;54.300;18.592;2022-11-20T13:46:17;90.60;;;26.27;;
67248;SDS011;63247;54.300;18.592;2022-11-20T13:48:49;94.45;;;28.10;;
67248;SDS011;63247;54.300;18.592;2022-11-20T14:00:24;59.25;;;19.15;;
67248;SDS011;63247;54.300;18.592;2022-11-20T14:02:38;67.35;;;19.20;;
67248;SDS011;63247;54.300;18.592;2022-11-20T14:05:04;53.07;;;17.87;;
67248;SDS011;63247;54.300;18.592;2022-11-20T14:07:41;73.45;;;20.45;;
67248;SDS011;63247;54.300;18.592;2022-11-20T14:13:15;79.30;;;20.65;;
67248;SDS011;63247;54.300;18.592;2022-11-20T14:15:44;61.55;;;19.90;;
67248;SDS011;63247;54.300;18.592;2022-11-20T14:18:19;86.30;;;24.60;;
67248;SDS011;63247;54.300;18.592;2022-11-20T14:20:47;78.03;;;22.33;;
67248;SDS011;63247;54.300;18.592;2022-11-20T14:23:22;81.23;;;24.10;;
67248;SDS011;63247;54.300;18.592;2022-11-20T14:25:52;95.43;;;28.25;;
67248;SDS011;63247;54.300;18.592;2022-11-20T14:28:28;80.55;;;24.38;;
67248;SDS011;63247;54.300;18.592;2022-11-20T14:30:54;96.80;;;29.85;;
67248;SDS011;63247;54.300;18.592;2022-11-20T14:33:21;108.40;;;29.47;;
67248;SDS011;63247;54.300;18.592;2022-11-20T14:35:53;76.13;;;21.48;;
67248;SDS011;63247;54.300;18.592;2022-11-20T14:38:25;87.80;;;26.02;;
67248;SDS011;63247;54.300;18.592;2022-11-20T14:40:52;89.32;;;23.83;;
67248;SDS011;63247;54.300;18.592;2022-11-20T14:45:58;124.47;;;35.92;;
67248;SDS011;63247;54.300;18.592;2022-11-20T14:48:29;98.43;;;25.42;;
67248;SDS011;63247;54.300;18.592;2022-11-20T14:50:57;107.53;;;29.97;;
67248;SDS011;63247;54.300;18.592;2022-11-20T14:53:24;80.15;;;20.63;;
67248;SDS011;63247;54.300;18.592;2022-11-20T14:56:00;104.43;;;28.38;;
67248;SDS011;63247;54.300;18.592;2022-11-20T14:58:30;84.73;;;22.60;;
67248;SDS011;63247;54.300;18.592;2022-11-20T15:01:02;97.20;;;25.92;;
67248;SDS011;63247;54.300;18.592;2022-11-20T15:03:35;91.60;;;24.08;;
67248;SDS011;63247;54.300;18.592;2022-11-20T15:06:03;86.07;;;25.25;;
67248;SDS011;63247;54.300;18.592;2022-11-20T15:08:34;77.57;;;22.02;;
67248;SDS011;63247;54.300;18.592;2022-11-20T15:11:00;61.10;;;18.57;;
67248;SDS011;63247;54.300;18.592;2022-11-20T15:13:31;92.28;;;27.88;;
67248;SDS011;63247;54.300;18.592;2022-11-20T15:16:00;115.65;;;32.08;;
67248;SDS011;63247;54.300;18.592;2022-11-20T15:18:39;92.43;;;26.87;;
67248;SDS011;63247;54.300;18.592;2022-11-20T15:21:13;129.63;;;37.25;;
67248;SDS011;63247;54.300;18.592;2022-11-20T15:23:39;115.00;;;30.63;;
67248;SDS011;63247;54.300;18.592;2022-11-20T15:26:06;83.72;;;24.17;;
67248;SDS011;63247;54.300;18.592;2022-11-20T15:28:36;130.77;;;36.50;;
67248;SDS011;63247;54.300;18.592;2022-11-20T15:31:04;115.23;;;31.70;;
67248;SDS011;63247;54.300;18.592;2022-11-20T15:33:31;103.32;;;28.17;;
67248;SDS011;63247;54.300;18.592;2022-11-20T15:35:57;102.93;;;29.45;;
67248;SDS011;63247;54.300;18.592;2022-11-20T15:38:23;126.17;;;34.43;;
67248;SDS011;63247;54.300;18.592;2022-11-20T15:40:49;125.28;;;36.25;;
67248;SDS011;63247;54.300;18.592;2022-11-20T15:43:14;86.47;;;24.60;;
67248;SDS011;63247;54.300;18.592;2022-11-20T15:45:49;105.73;;;28.87;;
67248;SDS011;63247;54.300;18.592;2022-11-20T15:48:19;129.93;;;36.13;;
67248;SDS011;63247;54.300;18.592;2022-11-20T15:53:21;74.50;;;23.10;;
67248;SDS011;63247;54.300;18.592;2022-11-20T15:55:46;90.13;;;25.42;;
67248;SDS011;63247;54.300;18.592;2022-11-20T15:58:12;97.33;;;27.10;;
67248;SDS011;63247;54.300;18.592;2022-11-20T16:00:37;88.40;;;24.47;;
67248;SDS011;63247;54.300;18.592;2022-11-20T16:03:03;125.22;;;33.90;;
67248;SDS011;63247;54.300;18.592;2022-11-20T16:05:29;70.53;;;22.50;;
67248;SDS011;63247;54.300;18.592;2022-11-20T16:07:54;109.68;;;30.42;;